Terminal Aerodrome Forecast
Issued by NWS Chicago, IL

Home | Current Version | Previous Version | Graphics & Text | Print | Product List | Glossary On
Versions: 1 2 3 4 5 6 7 8 9 10 11 12 13 14 15 16 17 18 19 20 21 22 23 24 25 26 27
000
FTUS43 KLOT 200204 AAB
TAFRFD
TAF AMD
KRFD 200204Z 2002/2024 08005KT 4SM -TSRA BKN040 BKN200CB
     FM200245 27008G15KT P6SM SCT017 BKN040
     FM200500 16006KT P6SM SCT050 BKN100
      TEMPO 2009/2011 2SM TSRA SCT020 OVC060CB
     FM201200 20010KT P6SM SCT040 BKN250
     FM201800 28010KT P6SM SCT050 BKN150=

USA.gov is the U.S. government's official web portal to all federal, state and local government web resources and services.